Terminal Aerodrome Forecast
Issued by NWS Twin Cities, MN

Home | Current Version | Previous Version | Text Only | Print | Product List | Glossary On
Versions: 1 2 3 4 5 6 7 8 9 10 11 12 13 14 15 16 17
545
FTUS43 KMPX 271723
TAFSTC
TAF
KSTC 271723Z 2718/2818 01006KT P6SM FEW025 OVC035
      TEMPO 2718/2720 BKN025
     FM280400 01003KT P6SM OVC012
     FM280800 01003KT 3SM BR OVC006=

USA.gov is the U.S. government's official web portal to all federal, state and local government web resources and services.